ADDS METAR Data INFO
IDs: Format: Raw Decoded Include TAF

Data at: 0023 UTC 23 Oct 2017

KEVM 230013Z AUTO 18004KT 10SM CLR 06/M03 A2985 RMK AO2 T00621031
KEVM 222354Z AUTO 18003KT 10SM CLR 07/M05 A2985 RMK AO2 T00721048 10142 20072
KEVM 222334Z AUTO 18004KT 10SM CLR 11/M09 A2985 RMK AO2 T01071089
KEVM 222313Z AUTO 21004KT 10SM CLR 12/M10 A2985 RMK AO2 T01151101
KEVM 222254Z AUTO 22006KT 10SM CLR 12/M11 A2985 RMK AO2 T01171110
KEVM 222233Z AUTO 23010KT 10SM CLR 13/M11 A2984 RMK AO2 T01301109
KEVM 222214Z AUTO 25010KT 10SM CLR 14/M12 A2984 RMK AO2 T01421123
KEVM 222154Z AUTO 24011G16KT 10SM CLR 14/M12 A2985 RMK AO2 T01421123
KEVM 222133Z AUTO 24010G16KT 10SM CLR 14/M12 A2984 RMK AO2 T01421117
KEVM 222114Z AUTO 24011G19KT 10SM CLR 14/M12 A2984 RMK AO2 T01421121
KEVM 222054Z AUTO 25009KT 10SM CLR 14/M12 A2985 RMK AO2 T01421119
KEVM 222033Z AUTO 25015G18KT 10SM CLR 14/M13 A2985 RMK AO2 T01421130
KEVM 222014Z AUTO 26011G20KT 10SM CLR 14/M13 A2984 RMK AO2 T01421126
KEVM 221954Z AUTO 25013G20KT 10SM CLR 14/M12 A2984 RMK AO2 T01421120
KEVM 221934Z AUTO 26012G17KT 10SM CLR 14/M11 A2984 RMK AO2 T01421110
KEVM 221914Z AUTO 26013G21KT 10SM CLR 14/M11 A2984 RMK AO2 T01421112
KEVM 221854Z AUTO 25014G20KT 10SM CLR 14/M09 A2985 RMK AO2 T01421089
KEVM 221834Z AUTO 25013G16KT 10SM CLR 14/M08 A2986 RMK AO2 T01421076
KEVM 221814Z AUTO 24014G20KT 10SM CLR 13/M07 A2986 RMK AO2 T01291066
KEVM 221754Z AUTO 24014G19KT 10SM CLR 13/M04 A2986 RMK AO2 T01261040 10126 20066
KEVM 221734Z AUTO 24010G21KT 10SM CLR 12/M02 A2986 RMK AO2 T01151019
KEVM 221713Z AUTO 25014G20KT 10SM CLR 12/06 A2987 RMK AO2 T01150055
KEVM 221654Z AUTO 25010KT 10SM CLR 10/05 A2987 RMK AO2 T01000049
KEVM 221634Z AUTO 23010KT 10SM CLR 10/06 A2987 RMK AO2 T00970055
KEVM 221613Z AUTO 24011KT 10SM CLR 08/05 A2986 RMK AO2 T00800048
KEVM 221554Z AUTO 24010G14KT 10SM CLR 08/05 A2986 RMK AO2 T00800052
KEVM 221534Z AUTO 24011G16KT 10SM CLR 08/05 A2986 RMK AO2 T00750052
KEVM 221514Z AUTO 23009KT 10SM CLR 08/05 A2985 RMK AO2 T00750054
KEVM 221454Z AUTO 23010KT 10SM CLR 07/06 A2984 RMK AO2 T00720055
KEVM 221433Z AUTO 23007KT 10SM CLR 07/06 A2985 RMK AO2 T00720057
KEVM 221414Z AUTO 22006KT 10SM CLR 07/06 A2984 RMK AO2 T00700057
KEVM 221354Z AUTO 22008KT 10SM CLR 07/06 A2984 RMK AO2 T00670055
KEVM 221334Z AUTO 22008KT 10SM CLR 07/06 A2983 RMK AO2 T00670057
KEVM 221314Z AUTO 22007KT 10SM CLR 07/06 A2982 RMK AO2 T00690059
KEVM 221254Z AUTO 24008G14KT 10SM CLR 07/06 A2980 RMK AO2 T00670058
KEVM 221234Z AUTO 23010G16KT 10SM CLR 07/06 A2979 RMK AO2 T00720064
KEVM 221214Z AUTO 23008KT 10SM CLR 07/06 A2977 RMK AO2 T00710064
KEVM 221154Z AUTO 23008KT 10SM CLR 07/06 A2977 RMK AO2 70028 T00710064 10115 20067
KEVM 221134Z AUTO 23008KT 10SM CLR 07/07 A2977 RMK AO2 T00720065
KEVM 221114Z AUTO 23010KT 10SM SCT044 07/07 A2977 RMK AO2 T00720066
KEVM 221053Z AUTO 23009KT 10SM CLR 07/07 A2977 RMK AO2 T00690065
KEVM 221034Z AUTO 23008KT 10SM CLR 07/07 A2977 RMK AO2 T00680065
KEVM 221014Z AUTO 22007KT 10SM SCT009 SCT120 07/07 A2976 RMK AO2 T00670065
KEVM 220953Z AUTO 23009KT 10SM SCT009 07/07 A2975 RMK AO2 T00720070
KEVM 220934Z AUTO 22008KT 10SM CLR 07/07 A2975 RMK AO2 T00720068
KEVM 220914Z AUTO 22008KT 10SM CLR 07/07 A2975 RMK AO2 T00730070
KEVM 220853Z AUTO 23009KT 10SM CLR 08/07 A2974 RMK AO2 T00750072
KEVM 220834Z AUTO 23007KT 10SM SCT009 SCT019 08/08 A2974 RMK AO2 T00790076
KEVM 220814Z AUTO 23009KT 10SM SCT009 BKN019 08/08 A2974 RMK AO2 T00810080
KEVM 220753Z AUTO 24009KT 10SM BKN009 09/08 A2974 RMK AO2 T00860084
KEVM 220734Z AUTO 22008KT 10SM BKN009 BKN013 10/10 A2973 RMK AO2 T01000096
KEVM 220713Z AUTO 23006KT 10SM CLR 10/09 A2973 RMK AO2 T00960091
KEVM 220654Z AUTO 23006KT 10SM SCT014 10/09 A2974 RMK AO2 T01000093
KEVM 220634Z AUTO 23008KT 10SM SCT020 SCT025 11/10 A2974 RMK AO2 T01120103
KEVM 220614Z AUTO 24011KT 10SM SCT015 BKN020 BKN044 12/10 A2973 RMK AO2 T01150104
KEVM 220553Z AUTO 24008KT 10SM BKN016 OVC041 12/11 A2973 RMK AO2 60003 T01150105 10171 20115
KEVM 220534Z AUTO 24008KT 10SM BKN016 BKN033 OVC041 12/11 A2971 RMK AO2 T01150106
KEVM 220513Z AUTO 24009KT 10SM SCT014 BKN019 OVC032 12/11 A2971 RMK AO2 T01150107
KEVM 220454Z AUTO 24010KT 10SM SCT013 OVC030 12/11 A2970 RMK AO2 T01150109
KEVM 220434Z AUTO 24009KT 10SM OVC028 12/11 A2970 RMK AO2 T01150107
KEVM 220413Z AUTO 25009KT 10SM SCT007 SCT011 BKN024 12/11 A2968 RMK AO2 T01190110
KEVM 220354Z AUTO 26011G16KT 7SM -DZ BKN009 BKN016 13/11 A2967 RMK AO2 T01250114
KEVM 220334Z AUTO 25016G21KT 10SM RA SCT009 BKN012 OVC022 15/15 A2965 RMK AO2 LTG DSNT SE T01510145
KEVM 220313Z AUTO 17008KT 10SM SCT013 BKN022 17/17 A2963 RMK AO2 T01710170
KEVM 220254Z AUTO 16007KT 10SM -RA BKN011 BKN016 17/17 A2964 RMK AO2 P0003 60003 T01680168
KEVM 220233Z AUTO 17009G14KT 5SM RA OVC011 17/17 A2964 RMK AO2 P0002 T01710169
KEVM 220214Z AUTO 17008KT 10SM OVC013 17/17 A2965 RMK AO2 T01710166
KEVM 220154Z AUTO 17011G15KT 10SM OVC011 17/17 A2965 RMK AO2 LTG DSNT N T01710167
KEVM 220134Z AUTO 18011G14KT 10SM -RA OVC011 17/17 A2965 RMK AO2 LTG DSNT S T01710167
KEVM 220114Z AUTO 18012G17KT 10SM OVC009 17/17 A2965 RMK AO2 LTG DSNT NW T01710167
KEVM 220054Z AUTO 19013G19KT 7SM VCTS OVC009 17/17 A2965 RMK AO2 LTG DSNT W T01710168
KEVM 220034Z AUTO 18009G20KT 10SM OVC009 17/17 A2965 RMK AO2 LTG DSNT S T01710167
KEVM 220014Z AUTO 18012G24KT 10SM OVC009 17/17 A2965 RMK AO2 LTG DSNT W T01710168
KEVM 212353Z AUTO 18010G21KT 10SM OVC009 17/17 A2964 RMK AO2 LTG DSNT SW AND W T01710170 10171 20142
KEVM 212334Z AUTO 19011G17KT 10SM OVC007 16/16 A2964 RMK AO2 T01590159
KEVM 212314Z AUTO 18012G20KT 5SM BR OVC007 16/16 A2964 RMK AO2 T01560156
KEVM 212254Z AUTO 17011KT 7SM OVC007 16/16 A2963 RMK AO2 LTG DSNT SW T01560156
KEVM 212234Z AUTO 18010KT 5SM BR OVC007 16/16 A2963 RMK AO2 T01560156
KEVM 212213Z AUTO 17009G15KT 3SM BR OVC007 16/16 A2963 RMK AO2 LTG DSNT NW T01560156
KEVM 212154Z AUTO 18010G18KT 4SM BR OVC007 16/16 A2963 RMK AO2 T01560156
KEVM 212134Z AUTO 18010G14KT 2 1/2SM BR OVC005 16/16 A2963 RMK AO2 T01560156
KEVM 212114Z AUTO 18013G18KT 2SM BR OVC005 16/16 A2963 RMK AO2 T01560156
KEVM 212054Z AUTO 17010G15KT 3SM BR OVC005 16/16 A2962 RMK AO2 T01560156
KEVM 212033Z AUTO 17013G16KT 2 1/2SM BR OVC007 16/16 A2962 RMK AO2 T01560156
KEVM 212014Z AUTO 17012G17KT 4SM BR OVC007 16/16 A2962 RMK AO2 T01560156
KEVM 211954Z AUTO 18014G19KT 5SM BR OVC007 16/16 A2962 RMK AO2 T01560155
KEVM 211933Z AUTO 18012G19KT 7SM OVC009 16/16 A2963 RMK AO2 T01560155
KEVM 211914Z AUTO 17012G16KT 10SM OVC009 16/16 A2963 RMK AO2 T01560155
KEVM 211854Z AUTO 17011KT 10SM OVC009 15/15 A2964 RMK AO2 T01500149
KEVM 211833Z AUTO 17010KT 10SM BKN009 OVC016 15/15 A2964 RMK AO2 T01500150
KEVM 211814Z AUTO 17010KT 10SM BKN009 OVC014 14/14 A2964 RMK AO2 T01420142
KEVM 211754Z AUTO 17007KT 10SM -RA BKN009 OVC016 14/14 A2965 RMK AO2 P0005 60025 T01420142 10160 20142
KEVM 211734Z AUTO 17009KT 10SM -RA BKN009 OVC014 14/14 A2966 RMK AO2 P0003 T01420142
KEVM 211714Z AUTO 17009G16KT 10SM RA OVC013 14/14 A2966 RMK AO2 T01420141
KEVM 211654Z AUTO 16008KT 10SM -RA OVC013 14/14 A2966 RMK AO2 P0019 T01420141
KEVM 211634Z AUTO 17009KT 7SM RA SCT006 OVC013 14/14 A2967 RMK AO2 P0018 T01420142
KEVM 211614Z AUTO 17008KT 2 1/2SM +RA SCT004 SCT008 OVC016 14/14 A2967 RMK AO2 VIS 1 1/2V4 P0013 T01420140
KEVM 211554Z AUTO 17012G16KT 5SM DZ BKN020 OVC025 15/14 A2968 RMK AO2 T01480135
KEVM 211534Z AUTO 17006KT 7SM -RA OVC023 16/13 A2967 RMK AO2 T01560134
KEVM 211513Z AUTO 17009G18KT 10SM OVC023 16/10 A2967 RMK AO2 T01580098
KEVM 211454Z AUTO 18013G20KT 10SM OVC025 16/10 A2967 RMK AO2 T01580095
KEVM 211434Z AUTO 17012G18KT 10SM OVC025 16/10 A2967 RMK AO2 T01560095
KEVM 211414Z AUTO 17009KT 10SM OVC025 16/10 A2966 RMK AO2 T01560095
KEVM 211354Z AUTO 18007KT 10SM OVC027 16/10 A2967 RMK AO2 T01560096
KEVM 211334Z AUTO 17009G15KT 10SM OVC027 16/10 A2966 RMK AO2 T01560098
KEVM 211313Z AUTO 17010KT 10SM OVC027 16/10 A2966 RMK AO2 LTG DSNT S T01560100
KEVM 211254Z AUTO 17011G17KT 10SM OVC027 16/11 A2965 RMK AO2 T01560106
KEVM 211234Z AUTO 17008KT 10SM OVC027 16/12 A2966 RMK AO2 T01560115